createdAt,value
2024-05-09T00:02:13.553Z,15.77
2024-05-09T00:05:16.156Z,16.35
2024-05-09T00:08:19.027Z,16.98
2024-05-09T00:11:23.020Z,16.58
2024-05-09T00:14:25.769Z,16.05
2024-05-09T00:17:28.533Z,16.50
2024-05-09T00:20:38.598Z,17.63
2024-05-09T00:23:45.479Z,17.35
2024-05-09T00:26:47.821Z,16.55
2024-05-09T00:29:50.084Z,16.35
2024-05-09T00:32:52.697Z,17.55
2024-05-09T00:35:57.713Z,16.73
2024-05-09T00:39:00.029Z,16.67
2024-05-09T00:42:02.396Z,15.60
2024-05-09T00:45:06.780Z,17.33
2024-05-09T00:48:11.072Z,15.38
2024-05-09T00:51:15.617Z,17.95
2024-05-09T00:54:19.852Z,16.58
2024-05-09T00:57:22.403Z,17.15
2024-05-09T01:00:31.614Z,16.73
2024-05-09T01:03:40.731Z,17.15
2024-05-09T01:06:43.673Z,16.13
2024-05-09T01:09:46.050Z,16.63
2024-05-09T01:12:48.409Z,16.63
2024-05-09T01:15:53.043Z,17.08
2024-05-09T01:18:55.933Z,16.98
2024-05-09T01:21:58.428Z,17.83
2024-05-09T01:25:00.832Z,17.35
2024-05-09T01:28:04.412Z,17.40
2024-05-09T01:31:06.879Z,15.82
2024-05-09T01:34:09.370Z,17.70
2024-05-09T01:37:11.809Z,16.85
2024-05-09T01:40:18.608Z,17.73
2024-05-09T01:43:27.311Z,18.33
2024-05-09T01:46:29.723Z,17.33
2024-05-09T01:49:37.512Z,17.10
2024-05-09T01:52:39.946Z,17.70
2024-05-09T01:55:42.718Z,15.80
2024-05-09T01:58:46.252Z,16.60
2024-05-09T02:01:56.668Z,15.63
2024-05-09T02:05:00.511Z,16.38
2024-05-09T02:08:07.829Z,16.95
2024-05-09T02:11:11.037Z,18.15
2024-05-09T02:14:13.569Z,15.65
2024-05-09T02:17:16.143Z,17.52
2024-05-09T02:20:27.452Z,17.70
2024-05-09T02:23:36.270Z,16.48
2024-05-09T02:26:38.734Z,16.17
2024-05-09T02:29:41.158Z,18.15
2024-05-09T02:32:43.690Z,16.35
2024-05-09T02:35:46.193Z,16.75
2024-05-09T02:38:48.581Z,17.20
2024-05-09T02:41:50.932Z,16.13
2024-05-09T02:44:54.731Z,16.77
2024-05-09T02:47:57.408Z,15.60
2024-05-09T02:51:02.867Z,17.45
2024-05-09T02:54:05.426Z,17.85
2024-05-09T02:57:08.144Z,16.20
2024-05-09T03:00:18.463Z,16.55
2024-05-09T03:03:25.073Z,17.58
2024-05-09T03:06:27.707Z,16.45
2024-05-09T03:09:30.027Z,18.08
2024-05-09T03:12:32.440Z,18.65
2024-05-09T03:15:35.048Z,18.48
2024-05-09T03:18:37.530Z,16.75
2024-05-09T03:21:41.547Z,17.88
2024-05-09T03:24:43.862Z,17.90
2024-05-09T03:27:46.138Z,18.27
2024-05-09T03:30:48.455Z,17.67
2024-05-09T03:33:50.981Z,17.65
2024-05-09T03:36:53.395Z,17.52
2024-05-09T03:39:55.706Z,18.20
2024-05-09T03:42:58.836Z,16.25
2024-05-09T03:46:01.371Z,16.88
2024-05-09T03:49:06.474Z,19.33
2024-05-09T03:52:08.867Z,16.55
2024-05-09T03:55:11.194Z,16.63
2024-05-09T03:58:14.540Z,16.52
2024-05-09T04:01:17.065Z,16.67
2024-05-09T04:04:19.531Z,14.90
2024-05-09T04:07:21.927Z,17.58
2024-05-09T04:10:34.119Z,16.80
2024-05-09T04:13:37.587Z,18.30
2024-05-09T04:16:39.936Z,16.85
2024-05-09T04:19:42.447Z,19.73
2024-05-09T04:22:44.907Z,19.17
2024-05-09T04:25:49.045Z,16.65
2024-05-09T04:28:51.450Z,17.67
2024-05-09T04:31:53.968Z,18.65
2024-05-09T04:34:56.478Z,16.65
2024-05-09T04:37:58.971Z,18.58
2024-05-09T04:41:01.405Z,17.23
2024-05-09T04:44:03.834Z,18.10
2024-05-09T04:47:08.985Z,16.10
2024-05-09T04:50:14.622Z,17.15
2024-05-09T04:53:19.922Z,17.20
2024-05-09T04:56:25.014Z,17.52
2024-05-09T04:59:27.527Z,16.35
2024-05-09T05:02:30.054Z,16.15
2024-05-09T05:05:32.574Z,17.70
2024-05-09T05:08:35.203Z,15.57
2024-05-09T05:11:37.722Z,18.17
2024-05-09T05:14:40.101Z,19.02
2024-05-09T05:17:42.644Z,14.48
2024-05-09T05:20:45.483Z,18.60
2024-05-09T05:23:47.974Z,17.35
2024-05-09T05:26:50.312Z,19.13
2024-05-09T05:29:52.656Z,18.95
2024-05-09T05:32:55.301Z,19.40
2024-05-09T05:35:57.776Z,19.80
2024-05-09T05:39:00.253Z,18.67
2024-05-09T05:42:02.549Z,20.27
2024-05-09T05:45:06.672Z,19.95
2024-05-09T05:48:10.954Z,21.80
2024-05-09T05:51:13.668Z,24.08
2024-05-09T05:54:16.131Z,21.60
2024-05-09T05:57:19.123Z,21.08
2024-05-09T06:00:29.405Z,21.73
2024-05-09T06:03:38.469Z,21.02
2024-05-09T06:06:41.138Z,23.25
2024-05-09T06:09:45.972Z,21.73
2024-05-09T06:12:49.853Z,20.35
2024-05-09T06:15:52.144Z,20.58
2024-05-09T06:18:54.759Z,20.60
2024-05-09T06:21:57.296Z,20.63
2024-05-09T06:24:59.582Z,22.23
2024-05-09T06:28:02.225Z,20.65
2024-05-09T06:31:04.842Z,22.98
2024-05-09T06:34:07.237Z,21.45
2024-05-09T06:37:09.712Z,22.83
2024-05-09T06:43:17.410Z,20.60
2024-05-09T06:46:21.386Z,19.27
2024-05-09T06:49:23.767Z,17.75
2024-05-09T06:52:26.163Z,18.25
2024-05-09T06:55:28.523Z,17.33
2024-05-09T06:58:30.940Z,16.70
2024-05-09T07:01:33.315Z,16.17
2024-05-09T07:04:35.878Z,15.85
2024-05-09T07:07:38.355Z,17.00
2024-05-09T07:10:40.666Z,18.92
2024-05-09T07:13:42.937Z,16.60
2024-05-09T07:16:45.364Z,17.92
2024-05-09T07:19:47.801Z,17.15
2024-05-09T07:22:50.586Z,15.98
2024-05-09T07:25:52.941Z,18.25
2024-05-09T07:28:55.412Z,18.73
2024-05-09T07:31:57.707Z,16.90
2024-05-09T07:35:00.203Z,16.88
2024-05-09T07:38:02.665Z,19.25
2024-05-09T07:41:05.329Z,21.23
2024-05-09T07:44:08.767Z,16.02
2024-05-09T07:48:27.528Z,17.63
2024-05-09T07:52:23.329Z,17.70
2024-05-09T07:54:00.645Z,17.10
2024-05-09T07:57:03.887Z,16.30
2024-05-09T08:00:08.293Z,18.05
2024-05-09T08:03:14.040Z,19.63
2024-05-09T08:06:17.904Z,16.30
2024-05-09T08:09:21.812Z,19.95
2024-05-09T08:12:24.215Z,19.45
2024-05-09T08:15:26.732Z,15.77
2024-05-09T08:18:29.289Z,17.63
2024-05-09T08:21:31.864Z,16.35
2024-05-09T08:24:35.850Z,21.42
2024-05-09T08:27:38.201Z,21.15
2024-05-09T08:30:41.720Z,18.50
2024-05-09T08:33:45.347Z,17.83
2024-05-09T08:36:48.848Z,15.45
2024-05-09T08:39:51.483Z,17.15
2024-05-09T08:42:57.863Z,17.20
2024-05-09T08:46:01.086Z,20.10
2024-05-09T08:49:04.767Z,17.52
2024-05-09T08:52:09.019Z,16.75
2024-05-09T08:55:12.426Z,15.02
2024-05-09T08:58:21.698Z,13.70
2024-05-09T09:01:24.572Z,14.57
2024-05-09T09:04:27.257Z,12.02
2024-05-09T09:07:30.429Z,12.10
2024-05-09T09:10:33.929Z,14.27
2024-05-09T09:13:36.357Z,14.40
2024-05-09T09:16:38.711Z,13.23
2024-05-09T09:19:41.451Z,11.63
2024-05-09T09:22:44.671Z,11.75
2024-05-09T09:25:48.259Z,10.32
2024-05-09T09:28:51.328Z,9.13
2024-05-09T09:32:04.272Z,12.30
2024-05-09T09:35:07.215Z,10.40
2024-05-09T09:38:10.521Z,9.80
2024-05-09T09:41:15.843Z,8.38
2024-05-09T09:44:19.576Z,9.02
2024-05-09T09:47:22.633Z,7.00
2024-05-09T09:50:33.289Z,8.73
2024-05-09T09:53:40.187Z,10.45
2024-05-09T09:56:51.157Z,8.95
2024-05-09T10:02:59.694Z,6.00
2024-05-09T10:06:02.202Z,4.63
2024-05-09T10:09:04.715Z,5.97
2024-05-09T10:12:45.605Z,6.40
2024-05-09T10:16:05.121Z,7.60
2024-05-09T10:19:41.663Z,6.78
2024-05-09T10:23:30.643Z,5.35
2024-05-09T10:26:54.653Z,7.78
2024-05-09T10:30:06.895Z,7.72
2024-05-09T10:33:13.868Z,7.13
2024-05-09T10:36:23.362Z,5.80
2024-05-09T10:39:25.893Z,4.72
2024-05-09T10:42:28.995Z,4.70
2024-05-09T10:45:32.028Z,3.35
2024-05-09T10:48:34.651Z,4.40
2024-05-09T10:51:37.266Z,4.07
2024-05-09T10:54:39.959Z,4.30
2024-05-09T10:57:43.214Z,4.10
2024-05-09T11:00:45.789Z,3.60
2024-05-09T11:03:48.828Z,3.15
2024-05-09T11:06:51.417Z,4.40
2024-05-09T11:09:53.977Z,4.13
2024-05-09T11:12:56.371Z,3.33
2024-05-09T11:16:00.383Z,3.42
2024-05-09T11:19:23.918Z,3.88
2024-05-09T11:25:54.123Z,4.03
2024-05-09T11:28:56.595Z,4.15
2024-05-09T11:32:00.484Z,4.93
2024-05-09T11:35:06.966Z,4.45
2024-05-09T11:41:31.127Z,4.22
2024-05-09T11:44:33.681Z,4.15
2024-05-09T11:47:36.166Z,4.57
2024-05-09T11:50:39.569Z,3.80
2024-05-09T11:53:41.981Z,4.65
2024-05-09T11:56:44.580Z,4.57
2024-05-09T11:59:46.990Z,5.00
2024-05-09T12:02:52.776Z,5.38
2024-05-09T12:05:55.297Z,5.20
2024-05-09T12:08:57.785Z,5.55
2024-05-09T12:12:00.127Z,4.20
2024-05-09T12:15:02.643Z,5.43
2024-05-09T12:18:05.956Z,6.80
2024-05-09T12:21:08.463Z,8.05
2024-05-09T12:24:14.402Z,7.60
2024-05-09T12:27:18.385Z,7.25
2024-05-09T12:30:32.499Z,6.22
2024-05-09T12:33:39.742Z,6.22
2024-05-09T12:36:43.107Z,5.38
2024-05-09T12:39:49.248Z,6.80
2024-05-09T12:42:55.227Z,6.90
2024-05-09T12:46:00.418Z,6.22
2024-05-09T12:49:03.369Z,5.70
2024-05-09T12:52:06.225Z,5.80
2024-05-09T12:55:08.781Z,6.38
2024-05-09T12:58:11.641Z,6.25
2024-05-09T13:01:14.364Z,6.07
2024-05-09T13:04:16.840Z,7.03
2024-05-09T13:07:19.386Z,7.50
2024-05-09T13:10:29.093Z,6.63
2024-05-09T13:13:34.796Z,5.70
2024-05-09T13:16:37.166Z,7.18
2024-05-09T13:19:39.516Z,6.50
2024-05-09T13:22:42.550Z,6.90
2024-05-09T13:25:45.073Z,6.93
2024-05-09T13:28:47.381Z,9.55
2024-05-09T13:31:49.690Z,9.85
2024-05-09T13:34:52.065Z,8.63
2024-05-09T13:37:54.436Z,9.18
2024-05-09T13:40:56.814Z,8.88
2024-05-09T13:43:59.366Z,9.80
2024-05-09T13:47:01.754Z,7.25
2024-05-09T13:50:06.934Z,9.05
2024-05-09T13:53:09.461Z,8.90
2024-05-09T13:56:12.770Z,8.60
2024-05-09T13:59:16.685Z,7.95
2024-05-09T14:02:19.212Z,8.13
2024-05-09T14:05:24.651Z,7.28
2024-05-09T14:08:27.140Z,8.63
2024-05-09T14:11:38.857Z,8.82
2024-05-09T14:14:42.227Z,6.88
2024-05-09T14:17:45.272Z,8.57
2024-05-09T14:20:52.948Z,9.52
2024-05-09T14:23:55.557Z,8.85
2024-05-09T14:27:01.301Z,8.73
2024-05-09T14:30:05.689Z,8.27
2024-05-09T14:33:11.767Z,9.57
2024-05-09T14:36:15.216Z,10.15
2024-05-09T14:39:17.745Z,11.93
2024-05-09T14:42:22.579Z,12.32
2024-05-09T14:45:25.203Z,10.75
2024-05-09T14:48:27.969Z,9.57
2024-05-09T14:51:30.418Z,9.85
2024-05-09T14:54:34.256Z,9.07
2024-05-09T14:57:38.300Z,9.38
2024-05-09T15:00:46.177Z,8.65
2024-05-09T15:06:54.828Z,9.52
2024-05-09T15:09:57.446Z,10.32
2024-05-09T15:13:00.290Z,9.32
2024-05-09T15:16:02.871Z,7.55
2024-05-09T15:19:09.504Z,7.57
2024-05-09T15:22:16.284Z,8.20
2024-05-09T15:25:18.770Z,8.43
2024-05-09T15:28:21.765Z,9.60
2024-05-09T15:31:24.570Z,11.73
2024-05-09T15:34:27.161Z,9.30
2024-05-09T15:37:29.753Z,9.25
2024-05-09T15:40:38.971Z,7.43
2024-05-09T15:43:47.106Z,8.70
2024-05-09T15:46:49.637Z,9.75
2024-05-09T15:49:52.288Z,8.23
2024-05-09T15:52:55.357Z,9.60
2024-05-09T15:55:57.833Z,9.63
2024-05-09T15:59:00.417Z,9.88
2024-05-09T16:02:02.881Z,7.40
2024-05-09T16:05:06.559Z,9.00
2024-05-09T16:08:12.665Z,9.73
2024-05-09T16:11:17.123Z,10.98
2024-05-09T16:14:19.592Z,10.88
2024-05-09T16:17:22.024Z,10.10
2024-05-09T16:20:34.410Z,8.35
2024-05-09T16:23:42.161Z,9.65
2024-05-09T16:26:44.821Z,9.50
2024-05-09T16:29:49.469Z,10.95
2024-05-09T16:32:52.646Z,9.60
2024-05-09T16:35:55.113Z,11.05
2024-05-09T16:38:58.079Z,10.00
2024-05-09T16:42:03.013Z,11.98
2024-05-09T16:45:06.510Z,11.02
2024-05-09T16:48:09.604Z,12.52
2024-05-09T16:51:12.316Z,11.20
2024-05-09T16:54:14.796Z,11.55
2024-05-09T18:01:06.547Z,16.60
2024-05-09T18:04:12.544Z,16.60
2024-05-09T18:07:23.843Z,16.20
2024-05-09T18:10:35.453Z,15.25
2024-05-09T18:13:40.850Z,23.95
2024-05-09T18:16:43.251Z,15.30
2024-05-09T18:19:45.599Z,15.48
2024-05-09T18:22:48.692Z,15.05
2024-05-09T18:25:59.378Z,14.43
2024-05-09T18:29:02.487Z,14.13
2024-05-09T18:33:07.801Z,15.73
2024-05-09T18:40:49.638Z,13.68
2024-05-09T18:43:57.244Z,14.07
2024-05-09T18:47:02.577Z,12.68
2024-05-09T18:50:12.059Z,12.90
2024-05-09T18:54:12.808Z,12.77
2024-05-09T18:57:18.328Z,13.80
2024-05-09T19:00:31.200Z,13.07
2024-05-09T19:10:34.663Z,13.07
2024-05-09T20:06:37.808Z,11.40
2024-05-09T20:09:40.650Z,10.40
2024-05-09T20:36:46.511Z,10.00
2024-05-09T21:06:20.382Z,12.32
2024-05-09T21:19:02.424Z,13.55
2024-05-09T21:22:31.787Z,13.07
2024-05-09T21:25:36.789Z,12.05
2024-05-09T21:28:55.454Z,12.88
2024-05-09T21:32:32.289Z,11.93
2024-05-09T21:36:06.286Z,12.35
2024-05-09T21:49:25.743Z,11.57
2024-05-09T21:56:14.292Z,10.75
2024-05-09T21:59:45.033Z,11.93
2024-05-09T22:02:56.289Z,11.80
2024-05-09T22:06:01.623Z,13.18
2024-05-09T22:09:22.141Z,12.27
2024-05-09T22:12:33.383Z,12.70
2024-05-09T22:15:40.890Z,12.68
2024-05-09T22:18:54.496Z,12.48
2024-05-09T22:22:00.311Z,12.30
2024-05-09T22:25:05.994Z,11.85
2024-05-09T22:28:08.805Z,12.70
2024-05-09T22:31:11.410Z,11.68
2024-05-09T22:34:18.527Z,13.05
2024-05-09T22:37:38.977Z,12.73
2024-05-09T22:40:48.315Z,12.35
2024-05-09T22:43:52.265Z,13.07
2024-05-09T22:46:57.944Z,13.27
2024-05-09T22:50:00.548Z,13.02
2024-05-09T22:53:02.837Z,14.68
2024-05-09T22:56:05.416Z,13.75
2024-05-09T22:59:08.015Z,13.15
2024-05-09T23:02:10.531Z,13.10
2024-05-09T23:05:15.726Z,13.52
2024-05-09T23:08:18.355Z,13.70
2024-05-09T23:11:20.670Z,12.85
2024-05-09T23:14:23.064Z,12.80
2024-05-09T23:17:25.586Z,14.02
2024-05-09T23:20:36.231Z,12.52
2024-05-09T23:23:41.288Z,13.73
2024-05-09T23:26:47.425Z,12.18
2024-05-09T23:29:52.458Z,12.65
2024-05-09T23:32:54.846Z,12.35
2024-05-09T23:35:57.287Z,13.48
2024-05-09T23:38:59.640Z,13.68
2024-05-09T23:42:01.939Z,14.32
2024-05-09T23:45:06.566Z,14.52
2024-05-09T23:48:09.460Z,12.52
2024-05-09T23:51:12.291Z,13.60
2024-05-09T23:54:15.213Z,13.65
2024-05-09T23:57:18.191Z,13.50
